createdAt,value
2023-01-17T00:02:31.821Z,3.60
2023-01-17T00:07:40.062Z,3.60
2023-01-17T00:12:51.816Z,3.60
2023-01-17T00:17:50.144Z,3.60
2023-01-17T00:22:58.693Z,3.60
2023-01-17T00:28:06.756Z,3.60
2023-01-17T00:33:15.575Z,3.70
2023-01-17T00:38:23.976Z,3.70
2023-01-17T00:43:32.735Z,3.70
2023-01-17T00:48:41.351Z,3.70
2023-01-17T00:53:50.155Z,3.70
2023-01-17T00:58:58.462Z,3.80
2023-01-17T01:04:07.213Z,3.70
2023-01-17T01:09:15.540Z,3.80
2023-01-17T01:14:24.386Z,3.80
2023-01-17T01:19:33.062Z,3.80
2023-01-17T01:24:41.727Z,3.80
2023-01-17T01:29:50.548Z,3.80
2023-01-17T01:34:59.313Z,3.80
2023-01-17T01:40:07.593Z,3.80
2023-01-17T01:45:16.172Z,3.90
2023-01-17T01:50:24.854Z,3.90
2023-01-17T01:55:33.785Z,3.90
2023-01-17T02:00:42.387Z,3.90
2023-01-17T02:05:50.685Z,3.90
2023-01-17T02:10:59.473Z,3.90
2023-01-17T02:16:08.108Z,3.90
2023-01-17T02:21:17.096Z,3.90
2023-01-17T02:26:25.834Z,4.00
2023-01-17T02:31:35.085Z,4.00
2023-01-17T02:36:43.962Z,4.00
2023-01-17T02:41:52.374Z,4.00
2023-01-17T02:47:01.651Z,4.10
2023-01-17T02:52:10.273Z,4.10
2023-01-17T02:57:19.003Z,4.00
2023-01-17T03:02:28.089Z,4.00
2023-01-17T03:07:36.743Z,4.10
2023-01-17T03:12:45.119Z,4.10
2023-01-17T03:17:53.469Z,4.10
2023-01-17T03:23:02.147Z,4.10
2023-01-17T03:28:11.601Z,4.10
2023-01-17T03:33:20.347Z,4.10
2023-01-17T03:38:28.993Z,4.10
2023-01-17T03:43:37.440Z,4.10
2023-01-17T03:48:46.590Z,4.10
2023-01-17T03:53:55.434Z,4.10
2023-01-17T03:59:04.360Z,4.10
2023-01-17T04:04:12.681Z,4.10
2023-01-17T04:09:21.545Z,4.10
2023-01-17T04:14:30.430Z,4.10
2023-01-17T04:19:39.285Z,4.10
2023-01-17T04:24:47.322Z,4.10
2023-01-17T04:29:56.209Z,4.10
2023-01-17T04:35:04.679Z,4.20
2023-01-17T04:40:13.407Z,4.20
2023-01-17T04:45:21.917Z,4.20
2023-01-17T04:50:30.627Z,4.20
2023-01-17T04:55:38.883Z,4.20
2023-01-17T05:00:47.446Z,4.30
2023-01-17T05:05:55.682Z,4.20
2023-01-17T05:11:04.468Z,4.20
2023-01-17T05:16:13.202Z,4.30
2023-01-17T05:21:22.240Z,4.30
2023-01-17T05:26:30.924Z,4.30
2023-01-17T05:31:39.550Z,4.30
2023-01-17T05:36:47.779Z,4.20
2023-01-17T05:41:56.528Z,4.30
2023-01-17T05:47:05.112Z,4.30
2023-01-17T05:52:14.097Z,4.30
2023-01-17T05:57:22.533Z,4.30
2023-01-17T06:02:31.282Z,4.40
2023-01-17T06:07:40.216Z,4.40
2023-01-17T06:12:48.861Z,4.50
2023-01-17T06:17:57.190Z,4.40
2023-01-17T06:23:05.346Z,4.40
2023-01-17T06:28:14.536Z,4.40
2023-01-17T06:33:23.324Z,4.40
2023-01-17T06:38:31.916Z,4.30
2023-01-17T06:43:40.629Z,4.30
2023-01-17T06:48:49.458Z,4.30
2023-01-17T06:53:58.055Z,4.30
2023-01-17T06:59:06.867Z,4.40
2023-01-17T07:04:16.998Z,4.50
2023-01-17T07:09:15.813Z,4.50
2023-01-17T07:14:24.855Z,4.50
2023-01-17T07:19:33.109Z,4.40
2023-01-17T07:24:42.399Z,4.50
2023-01-17T07:29:52.728Z,4.50
2023-01-17T07:34:59.418Z,4.50
2023-01-17T07:40:07.934Z,4.40
2023-01-17T07:45:16.973Z,4.50
2023-01-17T07:50:26.141Z,4.50
2023-01-17T07:55:35.400Z,4.50
2023-01-17T08:00:43.810Z,4.50
2023-01-17T08:05:52.496Z,4.60
2023-01-17T08:11:01.087Z,4.70
2023-01-17T08:16:09.765Z,4.80
2023-01-17T08:21:18.006Z,4.70
2023-01-17T08:26:27.001Z,4.80
2023-01-17T08:31:35.600Z,4.70
2023-01-17T08:36:44.300Z,4.80
2023-01-17T08:41:52.958Z,4.80
2023-01-17T08:47:01.466Z,4.90
2023-01-17T08:52:10.308Z,4.90
2023-01-17T08:57:19.491Z,4.90
2023-01-17T09:02:28.363Z,4.90
2023-01-17T09:07:37.538Z,4.90
2023-01-17T09:12:46.036Z,5.00
2023-01-17T09:17:54.822Z,4.90
2023-01-17T09:23:03.244Z,4.90
2023-01-17T09:28:12.087Z,5.00
2023-01-17T09:33:21.232Z,5.00
2023-01-17T09:38:30.458Z,5.00
2023-01-17T09:43:40.897Z,5.10
2023-01-17T09:48:48.849Z,5.20
2023-01-17T09:53:57.330Z,5.20
2023-01-17T09:59:06.074Z,5.30
2023-01-17T10:04:15.492Z,5.40
2023-01-17T10:09:25.219Z,5.40
2023-01-17T10:14:33.800Z,5.40
2023-01-17T10:19:43.071Z,5.50
2023-01-17T10:24:51.431Z,5.50
2023-01-17T10:30:00.381Z,5.50
2023-01-17T10:35:09.376Z,5.60
2023-01-17T10:40:19.177Z,5.60
2023-01-17T10:45:27.591Z,5.60
2023-01-17T10:50:39.939Z,5.60
2023-01-17T10:55:38.472Z,5.60
2023-01-17T11:00:46.995Z,5.60
2023-01-17T11:05:55.664Z,5.60
2023-01-17T11:11:04.526Z,5.60
2023-01-17T11:16:13.328Z,5.50
2023-01-17T11:21:22.013Z,5.40
2023-01-17T11:26:31.033Z,5.40
2023-01-17T11:31:39.573Z,5.40
2023-01-17T11:36:47.834Z,5.50
2023-01-17T11:41:56.979Z,5.50
2023-01-17T11:47:05.987Z,5.50
2023-01-17T11:52:17.789Z,5.50
2023-01-17T11:57:16.707Z,5.50
2023-01-17T12:02:25.778Z,5.50
2023-01-17T12:07:34.606Z,5.50
2023-01-17T12:12:43.592Z,5.50
2023-01-17T12:17:52.595Z,5.50
2023-01-17T12:23:01.553Z,5.60
2023-01-17T12:28:10.294Z,5.50
2023-01-17T12:33:18.974Z,5.50
2023-01-17T12:38:32.444Z,5.50
2023-01-17T12:43:36.113Z,5.40
2023-01-17T12:48:44.497Z,5.40
2023-01-17T12:53:53.944Z,5.40
2023-01-17T12:59:02.563Z,5.40
2023-01-17T13:04:11.647Z,5.40
2023-01-17T13:09:20.161Z,5.40
2023-01-17T13:14:29.088Z,5.40
2023-01-17T13:19:37.904Z,5.40
2023-01-17T13:24:46.924Z,5.40
2023-01-17T13:29:55.282Z,5.30
2023-01-17T13:35:04.167Z,5.30
2023-01-17T13:40:12.789Z,5.30
2023-01-17T13:45:22.034Z,5.40
2023-01-17T13:50:30.313Z,5.40
2023-01-17T13:55:39.876Z,5.30
2023-01-17T14:00:48.707Z,5.30
2023-01-17T14:05:57.444Z,5.30
2023-01-17T14:11:07.464Z,5.20
2023-01-17T14:16:14.346Z,5.30
2023-01-17T14:21:22.829Z,5.20
2023-01-17T14:26:31.487Z,5.20
2023-01-17T14:31:40.263Z,5.20
2023-01-17T14:36:49.207Z,5.20
2023-01-17T14:41:57.904Z,5.20
2023-01-17T14:47:06.776Z,5.10
2023-01-17T14:52:15.556Z,5.20
2023-01-17T14:57:24.424Z,5.20
2023-01-17T15:02:33.322Z,5.10
2023-01-17T15:07:41.801Z,5.10
2023-01-17T15:12:50.664Z,5.20
2023-01-17T15:17:59.295Z,5.20
2023-01-17T15:23:07.463Z,5.10
2023-01-17T15:28:16.382Z,5.20
2023-01-17T15:33:25.097Z,5.20
2023-01-17T15:38:38.939Z,5.20
2023-01-17T15:43:42.612Z,5.20
2023-01-17T15:48:51.539Z,5.20
2023-01-17T15:54:00.099Z,5.20
2023-01-17T15:59:09.552Z,5.20
2023-01-17T16:04:18.467Z,5.20
2023-01-17T16:09:27.098Z,5.10
2023-01-17T16:14:53.562Z,5.10
2023-01-17T16:19:44.653Z,5.20
2023-01-17T16:24:53.321Z,5.10
2023-01-17T16:30:02.610Z,5.20
2023-01-17T16:35:10.901Z,5.10
2023-01-17T16:40:19.308Z,5.10
2023-01-17T16:45:27.927Z,5.20
2023-01-17T16:50:37.245Z,5.20
2023-01-17T16:55:45.972Z,5.10
2023-01-17T17:00:54.568Z,5.10
2023-01-17T17:06:03.185Z,5.10
2023-01-17T17:11:12.365Z,5.00
2023-01-17T17:16:21.368Z,5.00
2023-01-17T17:21:30.654Z,5.00
2023-01-17T17:26:42.758Z,5.00
2023-01-17T17:31:41.963Z,5.00
2023-01-17T17:36:51.336Z,4.90
2023-01-17T17:42:01.329Z,4.90
2023-01-17T17:47:11.211Z,4.80
2023-01-17T17:52:20.970Z,4.70
2023-01-17T17:57:30.652Z,4.60
2023-01-17T18:02:40.012Z,4.60
2023-01-17T18:07:50.248Z,4.50
2023-01-17T18:12:57.365Z,4.40
2023-01-17T18:18:08.497Z,4.40
2023-01-17T18:23:08.187Z,4.40
2023-01-17T18:28:17.735Z,4.40
2023-01-17T18:33:27.824Z,4.40
2023-01-17T18:38:26.714Z,4.30
2023-01-17T18:43:35.925Z,4.30
2023-01-17T18:48:45.569Z,4.30
2023-01-17T18:53:55.268Z,4.20
2023-01-17T18:59:03.918Z,4.20
2023-01-17T19:04:13.334Z,4.20
2023-01-17T19:09:21.811Z,4.20
2023-01-17T19:14:31.124Z,4.20
2023-01-17T19:19:43.134Z,4.20
2023-01-17T19:24:42.304Z,4.20
2023-01-17T19:29:51.102Z,4.20
2023-01-17T19:35:00.965Z,4.20
2023-01-17T19:40:10.183Z,4.20
2023-01-17T19:45:19.924Z,4.30
2023-01-17T19:50:28.832Z,4.30
2023-01-17T19:55:37.652Z,4.30
2023-01-17T20:00:46.991Z,4.30
2023-01-17T20:05:55.285Z,4.30
2023-01-17T20:11:03.999Z,4.30
2023-01-17T20:16:13.042Z,4.30
2023-01-17T20:21:21.848Z,4.40
2023-01-17T20:26:31.276Z,4.40
2023-01-17T20:31:39.758Z,4.50
2023-01-17T20:36:48.785Z,4.60
2023-01-17T20:41:57.214Z,4.60
2023-01-17T20:47:06.429Z,4.60
2023-01-17T20:52:15.697Z,4.60
2023-01-17T20:57:25.854Z,4.70
2023-01-17T21:02:24.616Z,4.70
2023-01-17T21:07:33.600Z,4.70
2023-01-17T21:12:42.164Z,4.80
2023-01-17T21:17:50.965Z,4.80
2023-01-17T21:22:59.449Z,4.90
2023-01-17T21:28:08.101Z,4.90
2023-01-17T21:33:17.312Z,4.90
2023-01-17T21:38:26.236Z,4.90
2023-01-17T21:43:34.903Z,5.00
2023-01-17T21:48:43.902Z,5.00
2023-01-17T21:53:52.696Z,5.00
2023-01-17T21:59:01.907Z,5.00
2023-01-17T22:04:09.989Z,5.00
2023-01-17T22:09:18.915Z,5.00
2023-01-17T22:14:27.127Z,5.00
2023-01-17T22:19:35.938Z,5.00
2023-01-17T22:24:44.727Z,5.10
2023-01-17T22:29:53.639Z,5.10
2023-01-17T22:35:01.920Z,5.10
2023-01-17T22:40:10.552Z,5.10
2023-01-17T22:45:19.111Z,5.10
2023-01-17T22:50:28.363Z,5.10
2023-01-17T22:55:37.036Z,5.20
2023-01-17T23:00:46.179Z,5.10
2023-01-17T23:05:54.274Z,5.10
2023-01-17T23:11:03.265Z,5.20
2023-01-17T23:16:12.454Z,5.20
2023-01-17T23:21:22.056Z,5.20
2023-01-17T23:26:30.318Z,5.10
2023-01-17T23:31:39.254Z,5.20
2023-01-17T23:36:47.742Z,5.20
2023-01-17T23:41:56.301Z,5.20
2023-01-17T23:47:05.202Z,5.20
2023-01-17T23:52:14.335Z,5.30
2023-01-17T23:57:22.902Z,5.30
